Time;durP1;ratioP1;P1;durP2;ratioP2;P2;SDS_P1;SDS_P2;PMS_P1;PMS_P2;Temp;Humidity;BMP_temperature;BMP_pressure;BME280_temperature;BME280_humidity;BME280_pressure;Samples;Min_cycle;Max_cycle;Signal;HPM_P1;HPM_P2
2022/04/15 00:01:31;;;;;;;10.05;6.70;;;;;;;14.91;42.23;99206.81;5085873;28;20045;-69
2022/04/15 00:04:05;;;;;;;10.40;7.28;;;;;;;14.90;42.69;99210.47;5085705;28;20044;-70
2022/04/15 00:06:37;;;;;;;9.35;7.28;;;;;;;14.90;42.89;99202.44;5085393;28;20036;-69
2022/04/15 00:09:09;;;;;;;15.50;8.25;;;;;;;14.89;42.60;99203.41;5085484;28;20358;-69
2022/04/15 00:11:44;;;;;;;9.65;7.50;;;;;;;14.89;42.40;99205.25;5085498;28;20098;-69
2022/04/15 00:14:16;;;;;;;11.40;6.97;;;;;;;14.56;42.63;99150.72;5085382;28;20207;-69
2022/04/15 00:16:49;;;;;;;12.43;7.05;;;;;;;14.85;42.64;99201.94;5085361;28;20040;-69
2022/04/15 00:19:23;;;;;;;9.50;5.70;;;;;;;14.80;43.00;99193.44;5085355;28;20040;-69
2022/04/15 00:21:55;;;;;;;11.25;6.13;;;;;;;14.69;43.31;99198.72;5085416;28;20044;-69
2022/04/15 00:24:27;;;;;;;7.32;5.60;;;;;;;14.70;43.16;99206.63;5085570;28;20041;-69
2022/04/15 00:26:59;;;;;;;10.15;7.10;;;;;;;14.70;43.34;99193.28;5085245;28;20041;-70
2022/04/15 00:29:31;;;;;;;8.32;6.18;;;;;;;14.70;43.39;99197.75;5085524;28;20044;-69
2022/04/15 00:32:04;;;;;;;10.30;7.18;;;;;;;14.77;42.82;99192.81;5085204;28;20040;-70
2022/04/15 00:34:38;;;;;;;8.82;5.75;;;;;;;14.78;43.25;99197.19;5085218;28;20090;-70
2022/04/15 00:37:10;;;;;;;7.90;5.45;;;;;;;14.79;42.76;99205.06;5085260;28;20041;-69
2022/04/15 00:39:45;;;;;;;11.73;6.13;;;;;;;14.78;42.96;99203.38;5085374;28;20082;-70
2022/04/15 00:42:17;;;;;;;;;;;;;;;14.71;45.47;99202.97;5085880;28;20040;-69
2022/04/15 00:44:53;;;;;;;8.68;5.65;;;;;;;14.75;43.84;99195.59;5084960;28;19958;-69
2022/04/15 00:47:39;;;;;;;9.02;6.40;;;;;;;14.73;44.32;99202.88;5085077;28;20058;-69
2022/04/15 00:50:13;;;;;;;8.05;5.10;;;;;;;14.74;43.92;99208.09;5085102;28;20093;-70
2022/04/15 00:52:48;;;;;;;7.85;5.30;;;;;;;14.74;44.04;99202.75;5085058;28;20239;-70
2022/04/15 00:55:23;;;;;;;7.72;5.95;;;;;;;14.73;43.50;99205.53;5085072;28;20299;-70
2022/04/15 00:57:58;;;;;;;8.95;5.50;;;;;;;14.77;43.63;99198.16;5086912;28;20041;-70
2022/04/15 01:00:32;;;;;;;8.00;5.45;;;;;;;14.72;43.60;99203.84;5088930;28;20232;-70
2022/04/15 01:03:06;;;;;;;7.05;4.72;;;;;;;14.67;44.05;99200.66;5088913;28;20041;-70
2022/04/15 01:05:40;;;;;;;8.07;4.50;;;;;;;14.72;43.50;99202.00;5089169;28;20119;-69
2022/04/15 01:08:14;;;;;;;6.53;3.90;;;;;;;14.78;43.28;99207.84;5088848;28;20064;-70
2022/04/15 01:10:48;;;;;;;4.93;3.63;;;;;;;14.82;42.59;99214.66;5088805;28;20090;-69
2022/04/15 01:13:22;;;;;;;7.70;4.75;;;;;;;14.57;42.75;99162.22;5088804;28;20296;-70
2022/04/15 01:15:56;;;;;;;5.38;3.67;;;;;;;14.58;42.35;99194.16;5088686;28;20086;-70
2022/04/15 01:18:28;;;;;;;6.13;3.78;;;;;;;14.90;42.22;99212.28;5071726;28;20040;-70
2022/04/15 01:21:00;;;;;;;6.63;3.55;;;;;;;14.95;42.65;99218.97;5088788;28;20040;-70
2022/04/15 01:23:30;;;;;;;5.65;3.75;;;;;;;14.97;42.43;99217.03;5088465;28;20048;-70
2022/04/15 01:25:59;;;;;;;5.78;3.67;;;;;;;14.98;42.19;99226.75;5089014;28;20028;-70
2022/04/15 01:28:29;;;;;;;4.22;2.90;;;;;;;15.00;41.84;99226.63;5088695;28;20120;-70
2022/04/15 01:30:59;;;;;;;4.80;3.22;;;;;;;15.00;41.91;99232.81;5088432;28;20190;-70
2022/04/15 01:33:29;;;;;;;5.35;3.75;;;;;;;15.00;41.63;99226.63;5088936;28;20036;-70
2022/04/15 01:35:59;;;;;;;6.13;3.38;;;;;;;15.01;41.95;99229.19;5088474;28;20104;-70
2022/04/15 01:38:31;;;;;;;6.43;3.40;;;;;;;15.03;42.06;99226.41;5070847;28;20062;-71
2022/04/15 01:41:00;;;;;;;7.32;3.90;;;;;;;15.07;41.70;99226.06;5088411;28;20108;-70
2022/04/15 01:43:30;;;;;;;7.10;3.63;;;;;;;15.07;42.02;99226.06;5088178;28;20040;-71
2022/04/15 01:46:00;;;;;;;4.28;3.10;;;;;;;15.11;42.00;99223.16;5088420;28;20086;-71
2022/04/15 01:48:30;;;;;;;9.05;4.03;;;;;;;15.10;42.24;99226.78;5070899;28;20062;-70
2022/04/15 01:51:00;;;;;;;6.57;3.95;;;;;;;15.05;42.10;99230.66;5088328;28;20036;-70
2022/04/15 01:53:32;;;;;;;7.80;4.00;;;;;;;15.09;42.11;99231.28;5088274;28;20112;-70
2022/04/15 01:56:00;;;;;;;7.95;3.95;;;;;;;15.13;41.83;99231.88;5088246;28;20075;-70
2022/04/15 01:58:30;;;;;;;7.10;3.70;;;;;;;15.14;41.80;99237.13;5087929;28;20097;-70
2022/04/15 02:01:00;;;;;;;4.78;3.67;;;;;;;15.15;41.70;99241.47;5088269;28;20040;-70
2022/04/15 02:03:31;;;;;;;8.48;4.05;;;;;;;15.14;41.96;99233.59;5070676;28;20047;-70
2022/04/15 02:06:01;;;;;;;5.53;3.60;;;;;;;15.20;41.62;99243.81;5087963;28;20041;-70
2022/04/15 02:08:32;;;;;;;6.53;3.83;;;;;;;15.17;42.24;99249.38;5087071;28;20072;-70
2022/04/15 02:11:01;;;;;;;8.90;4.32;;;;;;;15.17;41.94;99252.03;5087492;28;20028;-70
2022/04/15 02:13:31;;;;;;;6.47;4.07;;;;;;;15.14;42.09;99258.47;5070199;28;20063;-70
2022/04/15 02:16:01;;;;;;;6.43;5.03;;;;;;;15.11;42.41;99257.84;5087856;28;20036;-70
2022/04/15 02:18:31;;;;;;;9.30;4.65;;;;;;;15.10;42.56;99258.81;5087462;28;20352;-70
2022/04/15 02:21:02;;;;;;;8.10;4.18;;;;;;;15.11;42.36;99261.38;5087383;28;20371;-70
2022/04/15 02:23:33;;;;;;;5.47;4.05;;;;;;;15.09;43.39;99268.63;5087347;28;20335;-70
2022/04/15 02:26:02;;;;;;;6.78;4.97;;;;;;;15.06;42.90;99267.06;5087438;28;20205;-70
2022/04/15 02:28:32;;;;;;;7.10;5.40;;;;;;;15.06;42.99;99269.72;5087254;28;20046;-70
2022/04/15 02:31:02;;;;;;;8.23;6.32;;;;;;;15.06;43.05;99275.06;5087452;28;20231;-70
2022/04/15 02:33:32;;;;;;;11.48;7.25;;;;;;;15.08;43.89;99278.47;5087157;28;20060;-70
2022/04/15 02:36:03;;;;;;;12.25;7.82;;;;;;;15.07;44.01;99279.44;5087212;28;20067;-70
2022/04/15 02:38:34;;;;;;;10.63;8.60;;;;;;;15.06;44.14;99293.75;5087191;28;20304;-70
2022/04/15 02:41:05;;;;;;;12.90;9.18;;;;;;;15.07;44.82;99298.13;5087109;28;20225;-70
2022/04/15 02:43:33;;;;;;;13.23;9.73;;;;;;;15.07;45.22;99295.44;5086813;28;20065;-70
2022/04/15 02:46:04;;;;;;;10.70;9.60;;;;;;;15.06;44.86;99298.22;5087310;28;20045;-70
2022/04/15 02:48:34;;;;;;;12.20;10.25;;;;;;;15.07;45.18;99298.13;5087287;28;20037;-70
2022/04/15 02:51:04;;;;;;;13.55;10.35;;;;;;;15.08;45.09;99294.47;5086949;28;20109;-70
2022/04/15 02:53:35;;;;;;;12.40;10.23;;;;;;;15.13;46.14;99298.63;5087168;28;20047;-70
2022/04/15 02:56:04;;;;;;;11.25;10.05;;;;;;;15.13;45.65;99295.94;5086757;28;20036;-70
2022/04/15 02:58:33;;;;;;;11.52;10.38;;;;;;;15.10;45.51;99302.38;5086984;28;20028;-70
2022/04/15 03:01:03;;;;;;;11.90;10.25;;;;;;;14.36;45.98;99178.00;5086559;28;20045;-70
2022/04/15 03:03:34;;;;;;;14.40;10.75;;;;;;;15.08;45.70;99298.97;5086636;28;20036;-70
2022/04/15 03:06:04;;;;;;;12.88;10.30;;;;;;;15.07;46.47;99307.94;5086576;28;20052;-70
2022/04/15 03:08:35;;;;;;;15.63;10.27;;;;;;;15.05;47.27;99308.06;5086473;28;20094;-70
2022/04/15 03:11:06;;;;;;;13.95;9.65;;;;;;;15.01;46.45;99311.91;5086782;28;20066;-71
2022/04/15 03:13:35;;;;;;;16.52;9.85;;;;;;;15.00;47.08;99307.53;5086269;28;20067;-70
2022/04/15 03:16:05;;;;;;;14.90;10.38;;;;;;;15.07;47.27;99297.25;5086982;28;20024;-70
2022/04/15 03:18:34;;;;;;;10.07;9.05;;;;;;;15.10;46.93;99307.72;5086639;28;20028;-70
2022/04/15 03:21:04;;;;;;;10.95;9.75;;;;;;;15.16;46.80;99315.25;5086276;28;20046;-70
2022/04/15 03:23:36;;;;;;;10.80;9.35;;;;;;;15.11;46.92;99305.91;5086239;28;20040;-70
2022/04/15 03:26:05;;;;;;;12.23;10.25;;;;;;;14.81;47.03;99266.31;5086525;28;20086;-71
2022/04/15 03:28:35;;;;;;;11.50;10.27;;;;;;;14.99;47.67;99313.00;5068936;28;20051;-70
2022/04/15 03:31:05;;;;;;;11.02;9.80;;;;;;;14.96;47.85;99310.56;5086142;28;20320;-71
2022/04/15 03:33:35;;;;;;;11.80;10.23;;;;;;;15.01;47.82;99313.72;5086933;28;20103;-70
2022/04/15 03:36:06;;;;;;;11.55;9.32;;;;;;;15.02;48.24;99321.63;5068632;28;20047;-70
2022/04/15 03:38:37;;;;;;;12.48;10.38;;;;;;;14.96;48.26;99324.75;5086045;28;20041;-70
2022/04/15 03:41:06;;;;;;;12.30;9.88;;;;;;;14.74;48.02;99313.94;5086240;28;20293;-70
2022/04/15 03:43:36;;;;;;;11.05;9.63;;;;;;;15.01;48.00;99327.94;5086434;28;20037;-71
2022/04/15 03:46:06;;;;;;;11.02;8.93;;;;;;;14.93;49.06;99326.78;5086226;28;20285;-70
2022/04/15 03:48:36;;;;;;;11.82;7.70;;;;;;;14.86;48.42;99336.22;5068973;28;20301;-70
2022/04/15 03:51:08;;;;;;;11.80;8.30;;;;;;;14.90;48.44;99330.53;5085897;28;20045;-70
2022/04/15 03:53:38;;;;;;;11.65;8.73;;;;;;;14.65;48.92;99302.13;5085832;28;20060;-71
2022/04/15 03:56:07;;;;;;;9.15;7.10;;;;;;;14.94;48.40;99342.69;5085943;28;20072;-71
2022/04/15 03:58:36;;;;;;;13.40;8.45;;;;;;;14.96;48.93;99345.25;5085663;28;20090;-70
2022/04/15 04:01:07;;;;;;;11.75;7.88;;;;;;;14.98;48.49;99338.81;5086108;28;20052;-70
2022/04/15 04:03:37;;;;;;;8.68;7.57;;;;;;;15.00;48.76;99350.25;5085582;28;20040;-70
2022/04/15 04:06:07;;;;;;;10.93;8.07;;;;;;;14.94;49.27;99352.50;5085869;28;20048;-70
2022/04/15 04:08:38;;;;;;;10.38;6.47;;;;;;;14.95;49.00;99354.22;5067938;28;20064;-70
2022/04/15 04:11:08;;;;;;;9.23;8.18;;;;;;;14.96;48.65;99369.25;5085605;28;20094;-70
2022/04/15 04:13:37;;;;;;;10.77;7.80;;;;;;;14.97;49.11;99362.97;5085782;28;20099;-70
2022/04/15 04:16:07;;;;;;;10.82;8.18;;;;;;;14.94;49.24;99366.69;5085830;28;20052;-70
2022/04/15 04:18:37;;;;;;;9.57;6.95;;;;;;;14.90;49.14;99367.03;5085756;28;20063;-70
2022/04/15 04:21:08;;;;;;;8.98;7.18;;;;;;;14.92;49.54;99367.78;5085626;28;20040;-70
2022/04/15 04:23:39;;;;;;;11.27;7.43;;;;;;;14.89;49.53;99373.34;5085719;28;20040;-70
2022/04/15 04:26:08;;;;;;;8.25;6.07;;;;;;;14.91;49.30;99382.94;5085728;28;20060;-70
2022/04/15 04:28:38;;;;;;;9.02;6.45;;;;;;;14.87;50.63;99389.47;5085698;28;20041;-70
2022/04/15 04:31:08;;;;;;;9.25;6.60;;;;;;;14.82;50.75;99385.41;5085388;28;20045;-70
2022/04/15 04:33:38;;;;;;;15.18;12.02;;;;;;;14.82;50.10;99394.28;5091255;28;20037;-71
2022/04/15 04:36:09;;;;;;;23.15;16.02;;;;;;;14.82;49.87;99404.94;5075113;28;20043;-71
2022/04/15 04:38:40;;;;;;;42.15;18.88;;;;;;;14.79;50.94;99402.50;5092245;28;20064;-70
2022/04/15 04:41:09;;;;;;;29.13;15.25;;;;;;;14.80;50.34;99403.34;5092732;28;20040;-71
2022/04/15 04:43:39;;;;;;;21.70;13.07;;;;;;;14.79;50.16;99413.16;5091992;28;20040;-71
2022/04/15 04:46:09;;;;;;;12.80;10.35;;;;;;;14.83;50.29;99428.00;5092191;28;20038;-71
2022/04/15 04:48:39;;;;;;;12.23;9.50;;;;;;;14.85;50.50;99439.41;5091886;28;20188;-71
2022/04/15 04:51:09;;;;;;;9.85;7.85;;;;;;;14.81;51.16;99440.59;5091952;28;20044;-71
2022/04/15 04:53:41;;;;;;;8.32;6.10;;;;;;;14.83;51.12;99451.16;5092456;28;20028;-71
2022/04/15 04:56:09;;;;;;;8.55;6.68;;;;;;;14.84;50.97;99456.38;5091885;28;20082;-71
2022/04/15 04:58:39;;;;;;;8.32;6.10;;;;;;;14.88;50.63;99454.34;5074283;28;20045;-70
2022/04/15 05:01:10;;;;;;;9.10;7.25;;;;;;;14.84;51.08;99468.88;5091973;28;20039;-71
2022/04/15 05:03:40;;;;;;;8.80;6.13;;;;;;;14.83;51.07;99477.84;5092094;28;20111;-71
2022/04/15 05:06:10;;;;;;;9.98;5.85;;;;;;;14.81;51.40;99483.28;5092040;28;20044;-70
2022/04/15 05:08:42;;;;;;;8.13;6.28;;;;;;;14.85;50.95;99482.09;5091599;28;20057;-70
2022/04/15 05:11:10;;;;;;;6.90;5.28;;;;;;;14.94;50.92;99477.94;5091703;28;20082;-71
2022/04/15 05:13:41;;;;;;;7.88;5.55;;;;;;;14.94;50.61;99462.78;5091952;28;20052;-70
2022/04/15 05:16:11;;;;;;;7.88;6.05;;;;;;;14.97;50.43;99448.34;5091647;28;20090;-70
2022/04/15 05:18:41;;;;;;;9.05;7.18;;;;;;;15.01;50.85;99452.50;5091930;28;20037;-71
2022/04/15 05:21:13;;;;;;;7.25;6.30;;;;;;;15.02;50.57;99454.22;5091845;28;20052;-70
2022/04/15 05:23:45;;;;;;;9.88;5.88;;;;;;;15.05;50.44;99454.84;5091561;28;20040;-71
2022/04/15 05:26:17;;;;;;;9.27;5.15;;;;;;;15.01;50.76;99466.72;5091525;28;20060;-71
2022/04/15 05:28:47;;;;;;;6.25;4.93;;;;;;;15.06;50.68;99461.91;5091711;28;20354;-71
2022/04/15 05:31:17;;;;;;;8.85;5.07;;;;;;;15.15;50.54;99475.53;5074157;28;20044;-71
2022/04/15 05:33:48;;;;;;;7.28;4.80;;;;;;;15.17;50.63;99479.81;5091821;28;20066;-71
2022/04/15 05:36:18;;;;;;;7.38;5.43;;;;;;;15.19;50.80;99483.22;5091516;28;20055;-71
2022/04/15 05:38:50;;;;;;;6.60;5.38;;;;;;;15.23;50.48;99481.19;5091722;28;20250;-71
2022/04/15 05:41:19;;;;;;;8.88;5.25;;;;;;;15.21;50.73;99475.09;5091351;28;20100;-71
2022/04/15 05:43:49;;;;;;;8.10;5.05;;;;;;;15.24;51.01;99482.88;5090496;28;20040;-71
2022/04/15 05:46:19;;;;;;;6.75;4.53;;;;;;;15.31;50.51;99489.50;5088514;28;20099;-71
2022/04/15 05:48:49;;;;;;;7.10;4.38;;;;;;;15.35;50.78;99498.97;5088250;28;20220;-70
2022/04/15 05:51:20;;;;;;;6.97;4.53;;;;;;;15.36;50.83;99506.88;5088218;28;20089;-71
2022/04/15 05:53:51;;;;;;;9.13;4.95;;;;;;;15.34;52.04;99514.16;5070893;28;20037;-71
2022/04/15 05:56:20;;;;;;;8.10;5.38;;;;;;;15.37;51.14;99515.75;5088061;28;20296;-71
2022/04/15 05:58:50;;;;;;;7.13;4.45;;;;;;;15.42;51.30;99515.41;5088051;28;20036;-71
2022/04/15 06:01:21;;;;;;;6.13;4.88;;;;;;;15.42;51.16;99507.41;5088104;28;20037;-71
2022/04/15 06:03:51;;;;;;;7.82;4.35;;;;;;;15.43;51.45;99507.28;5087939;28;20041;-71
2022/04/15 06:06:21;;;;;;;5.85;4.15;;;;;;;15.46;51.62;99507.06;5088108;28;20043;-71
2022/04/15 06:08:53;;;;;;;6.47;4.45;;;;;;;15.51;51.83;99509.41;5087850;28;20204;-71
2022/04/15 06:11:22;;;;;;;6.30;3.92;;;;;;;15.48;52.09;99514.97;5087992;28;20076;-71
2022/04/15 06:13:52;;;;;;;6.00;4.57;;;;;;;15.45;52.54;99521.38;5087807;28;20071;-71
2022/04/15 06:16:22;;;;;;;9.13;5.30;;;;;;;15.45;52.60;99532.06;5087710;28;20082;-71
2022/04/15 06:18:52;;;;;;;8.38;5.60;;;;;;;15.50;52.84;99535.25;5088027;28;20036;-71
2022/04/15 06:21:22;;;;;;;7.30;5.28;;;;;;;15.42;53.24;99532.28;5087828;28;20102;-71
2022/04/15 06:23:54;;;;;;;5.30;4.32;;;;;;;15.17;53.72;99479.81;5087568;28;20043;-71
2022/04/15 06:26:23;;;;;;;6.70;4.30;;;;;;;15.39;53.45;99524.50;5087747;28;20074;-71
2022/04/15 06:28:53;;;;;;;4.80;3.33;;;;;;;15.34;53.87;99524.84;5087764;28;20257;-70
2022/04/15 06:31:23;;;;;;;4.45;3.58;;;;;;;15.36;54.48;99527.41;5070247;28;20051;-71
2022/04/15 06:33:54;;;;;;;7.10;4.85;;;;;;;15.31;54.40;99541.06;5087369;28;20051;-71
2022/04/15 06:36:24;;;;;;;6.18;3.92;;;;;;;15.23;55.11;99550.59;5087569;28;20044;-71
2022/04/15 06:38:56;;;;;;;6.57;4.20;;;;;;;15.29;55.86;99547.50;5087520;28;20292;-71
2022/04/15 06:41:24;;;;;;;6.72;3.92;;;;;;;15.29;55.21;99548.34;5087182;28;20047;-70
2022/04/15 06:43:55;;;;;;;5.75;3.65;;;;;;;15.18;56.32;99542.06;5087316;28;20089;-71
2022/04/15 06:46:25;;;;;;;6.57;4.20;;;;;;;14.82;56.26;99503.66;5069975;28;20094;-71
2022/04/15 06:48:55;;;;;;;6.15;4.05;;;;;;;14.95;57.34;99552.53;5086881;28;20247;-71
2022/04/15 06:51:26;;;;;;;5.68;3.85;;;;;;;14.87;57.12;99546.88;5087290;28;20044;-71
2022/04/15 06:53:57;;;;;;;6.65;4.65;;;;;;;14.83;58.28;99542.72;5086980;28;20055;-71
2022/04/15 06:56:26;;;;;;;7.93;5.65;;;;;;;14.83;57.68;99547.22;5086402;28;20253;-70
2022/04/15 06:58:56;;;;;;;7.45;4.63;;;;;;;14.76;57.64;99546.78;5087110;28;20103;-71
2022/04/15 07:01:26;;;;;;;5.63;4.10;;;;;;;14.69;58.51;99534.81;5086916;28;20048;-71
2022/04/15 07:03:57;;;;;;;6.43;4.57;;;;;;;14.70;58.38;99545.41;5086901;28;20040;-71
2022/04/15 07:06:27;;;;;;;5.88;4.22;;;;;;;14.47;58.20;99499.88;5086938;28;20044;-71
2022/04/15 07:08:59;;;;;;;5.72;3.92;;;;;;;14.69;58.51;99546.34;5086460;28;20116;-71
2022/04/15 07:11:28;;;;;;;6.90;4.07;;;;;;;14.55;59.95;99562.38;5086755;28;20090;-71
2022/04/15 07:13:58;;;;;;;7.68;4.90;;;;;;;14.62;58.62;99560.22;5086645;28;20044;-71
2022/04/15 07:16:28;;;;;;;10.02;5.43;;;;;;;14.68;58.74;99557.13;5086361;28;20067;-71
2022/04/15 07:19:02;;;;;;;7.65;6.18;;;;;;;14.70;58.80;99544.53;5086404;28;20036;-71
2022/04/15 07:21:34;;;;;;;8.88;7.32;;;;;;;14.73;59.73;99539.00;5086646;28;20330;-70
2022/04/15 07:24:09;;;;;;;13.38;10.73;;;;;;;14.51;60.04;99491.53;5069517;28;20040;-71
2022/04/15 07:26:41;;;;;;;10.35;7.32;;;;;;;14.85;58.67;99539.94;5086235;28;20300;-71
2022/04/15 07:29:13;;;;;;;7.05;5.28;;;;;;;14.80;58.68;99545.59;5086132;28;20082;-71
2022/04/15 07:31:45;;;;;;;7.18;4.53;;;;;;;14.76;59.29;99549.44;5068706;28;20044;-71
2022/04/15 07:34:18;;;;;;;6.10;4.60;;;;;;;14.67;60.25;99553.59;5086086;28;20270;-71
2022/04/15 07:36:53;;;;;;;6.10;4.47;;;;;;;14.57;59.80;99551.59;5085998;28;20041;-70
2022/04/15 07:39:27;;;;;;;6.75;4.78;;;;;;;14.45;59.73;99546.16;5068442;28;20048;-71
2022/04/15 07:41:59;;;;;;;6.28;4.68;;;;;;;14.18;59.75;99507.19;5085965;28;20239;-70
2022/04/15 07:44:31;;;;;;;6.70;5.80;;;;;;;14.41;60.54;99544.66;5086099;28;20097;-71
2022/04/15 07:47:04;;;;;;;6.70;5.43;;;;;;;12.78;60.55;99275.09;5086122;28;20089;-71
2022/04/15 07:49:37;;;;;;;6.18;5.15;;;;;;;13.37;60.51;99377.59;5085909;28;20196;-71
2022/04/15 07:52:09;;;;;;;6.05;5.13;;;;;;;14.44;59.98;99552.44;5085978;28;20063;-71
2022/04/15 07:54:43;;;;;;;6.80;5.45;;;;;;;14.44;61.21;99554.25;5086036;28;20048;-71
2022/04/15 07:57:17;;;;;;;6.65;5.22;;;;;;;14.42;60.60;99551.69;5085633;28;20063;-70
2022/04/15 07:59:49;;;;;;;8.07;5.37;;;;;;;14.39;61.01;99553.72;5085782;28;20086;-70
2022/04/15 08:02:22;;;;;;;7.18;5.68;;;;;;;14.37;61.36;99553.81;5085843;28;20048;-70
2022/04/15 08:04:54;;;;;;;6.90;5.53;;;;;;;14.38;60.73;99554.69;5085423;28;20091;-71
2022/04/15 08:07:26;;;;;;;9.27;5.93;;;;;;;14.35;61.47;99550.41;5084835;28;20311;-71
2022/04/15 08:10:00;;;;;;;8.43;5.80;;;;;;;14.34;62.03;99563.84;5085563;28;20296;-71
2022/04/15 08:12:32;;;;;;;8.50;5.50;;;;;;;14.25;61.79;99567.13;5085490;28;20082;-71
2022/04/15 08:15:05;;;;;;;8.07;5.78;;;;;;;14.19;62.83;99557.72;5085716;28;20114;-70
2022/04/15 08:17:37;;;;;;;7.22;5.28;;;;;;;14.21;61.93;99558.47;5068026;28;20059;-71
2022/04/15 08:20:10;;;;;;;8.32;5.70;;;;;;;14.22;61.43;99560.19;5085713;28;20094;-70
2022/04/15 08:22:42;;;;;;;9.30;6.20;;;;;;;13.18;61.46;99417.00;5085426;28;20331;-71
2022/04/15 08:25:16;;;;;;;9.75;6.85;;;;;;;14.19;62.76;99554.19;5085231;28;20086;-70
2022/04/15 08:27:48;;;;;;;9.68;5.70;;;;;;;14.19;61.90;99554.19;5085597;28;20044;-71
2022/04/15 08:30:20;;;;;;;6.75;5.32;;;;;;;14.18;61.93;99563.16;5085340;28;20048;-71
2022/04/15 08:32:53;;;;;;;8.02;6.07;;;;;;;14.22;61.72;99559.31;5085423;28;20062;-71
2022/04/15 08:35:25;;;;;;;8.50;7.13;;;;;;;14.24;62.44;99563.59;5085300;28;20082;-70
2022/04/15 08:37:57;;;;;;;8.30;6.60;;;;;;;13.94;61.78;99510.53;5085261;28;20086;-70
2022/04/15 08:40:32;;;;;;;7.40;5.45;;;;;;;14.31;62.31;99553.38;5085185;28;20058;-71
2022/04/15 08:43:07;;;;;;;7.03;6.28;;;;;;;14.30;61.72;99563.19;5085382;28;20044;-71
2022/04/15 08:45:41;;;;;;;7.72;5.13;;;;;;;14.28;62.27;99566.91;5085089;28;20044;-70
2022/04/15 08:48:14;;;;;;;;;;;;;;;14.27;64.60;99567.88;5068082;28;20040;-70
2022/04/15 08:50:46;;;;;;;11.57;6.10;;;;;;;14.34;61.24;99572.69;5085005;28;20138;-71
2022/04/15 08:53:21;;;;;;;7.40;5.43;;;;;;;14.37;61.55;99569.81;5084885;28;20251;-71
2022/04/15 08:55:54;;;;;;;6.57;5.78;;;;;;;14.38;61.20;99574.19;5085028;28;20098;-71
2022/04/15 08:58:28;;;;;;;10.35;5.88;;;;;;;14.37;61.82;99569.81;5084747;28;20066;-70
2022/04/15 09:01:00;;;;;;;7.43;5.97;;;;;;;14.33;61.51;99573.66;5084939;28;20061;-71
2022/04/15 09:03:32;;;;;;;9.75;7.78;;;;;;;14.28;61.85;99578.44;5085041;28;20299;-71
2022/04/15 09:06:04;;;;;;;8.85;7.38;;;;;;;14.31;62.36;99577.38;5084680;28;20090;-71
2022/04/15 09:08:58;;;;;;;9.55;8.02;;;;;;;14.34;62.77;99564.69;5084599;28;20351;-70
2022/04/15 09:11:49;;;;;;;12.48;8.48;;;;;;;14.38;63.90;99565.34;5084614;28;20045;-71
2022/04/15 09:14:21;;;;;;;9.80;8.80;;;;;;;14.38;62.19;99560.88;5084419;28;20044;-70
2022/04/15 09:16:54;;;;;;;10.43;9.10;;;;;;;13.35;62.14;99386.63;5084905;28;20037;-71
2022/04/15 09:19:26;;;;;;;9.82;8.30;;;;;;;14.50;61.35;99559.19;5069660;28;20041;-71
2022/04/15 09:22:01;;;;;;;10.43;8.68;;;;;;;14.58;61.38;99553.34;5088317;28;20041;-71
2022/04/15 09:24:34;;;;;;;12.05;9.77;;;;;;;14.62;61.74;99552.22;5088311;28;20090;-70
2022/04/15 09:27:08;;;;;;;10.02;9.02;;;;;;;14.69;61.42;99553.50;5088176;28;20044;-70
2022/04/15 09:29:41;;;;;;;11.05;9.77;;;;;;;14.81;60.70;99554.47;5088620;28;20063;-71
2022/04/15 09:32:15;;;;;;;12.88;10.88;;;;;;;14.68;60.97;99515.31;5088163;28;20297;-71
2022/04/15 09:34:54;;;;;;;14.20;10.70;;;;;;;15.03;62.48;99557.34;5088447;28;20067;-71
2022/04/15 09:37:29;;;;;;;10.23;8.75;;;;;;;14.10;60.02;99385.09;5088092;28;20040;-71
2022/04/15 09:40:06;;;;;;;11.77;8.48;;;;;;;15.32;60.86;99558.81;5087888;28;20297;-70
2022/04/15 09:42:45;;;;;;;8.65;7.40;;;;;;;14.99;60.16;99473.97;5088329;28;20041;-71
2022/04/15 09:45:19;;;;;;;7.55;6.72;;;;;;;15.69;58.33;99557.03;5087958;28;20048;-71
2022/04/15 09:47:52;;;;;;;6.97;5.88;;;;;;;15.92;57.72;99551.81;5088076;28;20338;-71
2022/04/15 09:50:27;;;;;;;8.73;6.25;;;;;;;16.15;56.93;99534.91;5087809;28;20036;-71
2022/04/15 09:53:08;;;;;;;;;;;;;;;16.34;55.90;99542.41;5088563;28;20276;-71
2022/04/15 09:55:42;;;;;;;9.10;5.28;;;;;;;16.62;54.75;99535.78;5087606;28;20065;-71
2022/04/15 09:58:17;;;;;;;7.55;4.85;;;;;;;16.89;54.29;99528.31;5087962;28;20037;-70
2022/04/15 10:00:51;;;;;;;6.72;4.53;;;;;;;17.03;53.46;99529.06;5088003;28;20041;-71
2022/04/15 10:03:25;;;;;;;6.03;4.43;;;;;;;16.48;53.08;99432.50;5087845;28;20044;-71
2022/04/15 10:05:59;;;;;;;7.10;4.25;;;;;;;17.36;51.94;99526.41;5087696;28;20086;-71
2022/04/15 10:08:32;;;;;;;7.10;4.68;;;;;;;17.40;51.89;99522.50;5087578;28;20098;-70
2022/04/15 10:11:04;;;;;;;7.22;5.07;;;;;;;17.50;51.46;99515.41;5087427;28;20044;-71
2022/04/15 10:13:39;;;;;;;7.18;3.83;;;;;;;17.60;50.62;99513.69;5087661;28;20044;-71
2022/04/15 10:16:12;;;;;;;7.30;4.10;;;;;;;17.88;49.91;99531.06;5087287;28;20281;-70
2022/04/15 10:18:46;;;;;;;7.30;5.38;;;;;;;18.10;49.32;99530.16;5087244;28;20044;-70
2022/04/15 10:21:19;;;;;;;6.93;4.45;;;;;;;18.12;49.40;99525.50;5087150;28;20055;-71
2022/04/15 10:23:52;;;;;;;5.22;4.57;;;;;;;18.33;49.58;99524.69;5087115;28;20044;-70
2022/04/15 10:26:25;;;;;;;4.50;3.58;;;;;;;18.37;48.53;99470.63;5087217;28;20297;-71
2022/04/15 10:29:02;;;;;;;5.05;3.97;;;;;;;17.28;47.60;99269.88;5087074;28;20036;-70
2022/04/15 10:31:39;;;;;;;7.43;4.80;;;;;;;18.82;47.01;99508.78;5086087;28;20082;-67
2022/04/15 10:34:14;;;;;;;5.32;3.97;;;;;;;19.13;47.37;99515.03;5086914;28;20063;-67
2022/04/15 10:36:48;;;;;;;6.95;4.43;;;;;;;19.40;46.31;99501.00;5086878;28;20045;-67
2022/04/15 10:39:21;;;;;;;5.50;4.05;;;;;;;19.47;45.71;99504.84;5086669;28;20040;-67
2022/04/15 10:41:57;;;;;;;6.07;3.83;;;;;;;19.40;44.95;99497.47;5086604;28;20063;-67
2022/04/15 10:44:33;;;;;;;6.07;3.95;;;;;;;19.14;45.09;99437.97;5086961;28;20041;-67
2022/04/15 10:47:11;;;;;;;6.88;4.65;;;;;;;19.15;43.94;99435.13;5086325;28;20041;-67
2022/04/15 10:49:55;;;;;;;8.15;4.20;;;;;;;19.86;43.56;99505.78;5086679;28;20041;-67
2022/04/15 10:52:30;;;;;;;7.05;3.50;;;;;;;20.04;44.75;99489.81;5086539;28;20094;-67
2022/04/15 10:55:03;;;;;;;7.60;4.10;;;;;;;20.23;44.44;99483.59;5086372;28;20048;-67
2022/04/15 10:57:37;;;;;;;6.00;3.63;;;;;;;20.26;44.36;99487.84;5086377;28;20354;-67
2022/04/15 11:03:21;;;;;;;9.90;6.05;;;;;;;20.49;42.63;99470.41;5086043;28;20040;-68
2022/04/15 11:05:55;;;;;;;7.22;4.85;;;;;;;20.62;43.96;99476.31;5086214;28;20152;-67
2022/04/15 11:08:28;;;;;;;6.82;4.93;;;;;;;20.70;43.94;99472.91;5085987;28;20056;-67
2022/04/15 11:11:03;;;;;;;8.57;4.95;;;;;;;20.80;44.22;99463.78;5086431;28;20040;-67
2022/04/15 11:14:03;;;;;;;5.95;4.68;;;;;;;20.95;42.15;99464.16;5086068;28;20251;-67
2022/04/15 11:17:00;;;;;;;12.05;5.47;;;;;;;21.08;42.67;99458.47;5086034;28;20082;-67
2022/04/15 11:19:34;;;;;;;7.45;5.15;;;;;;;21.16;43.53;99465.81;5085744;28;20040;-67
2022/04/15 11:22:06;;;;;;;6.60;4.82;;;;;;;21.32;43.42;99460.63;5086009;28;20044;-68
2022/04/15 11:24:41;;;;;;;5.72;4.45;;;;;;;21.24;42.78;99455.13;5086065;28;20082;-67
2022/04/15 11:27:15;;;;;;;7.70;5.85;;;;;;;21.28;42.67;99460.06;5085713;28;20083;-67
2022/04/15 11:29:48;;;;;;;8.05;6.40;;;;;;;21.39;43.35;99451.78;5085730;28;20078;-67
2022/04/15 11:32:22;;;;;;;8.75;5.55;;;;;;;21.38;42.93;99455.47;5085953;28;20085;-68
2022/04/15 11:34:55;;;;;;;5.45;4.75;;;;;;;20.84;43.51;99421.25;5085512;28;20090;-68
2022/04/15 11:37:27;;;;;;;7.55;5.68;;;;;;;21.04;43.94;99457.91;5085443;28;20338;-67
2022/04/15 11:40:00;;;;;;;6.32;5.50;;;;;;;21.02;43.94;99451.81;5085505;28;20044;-68
2022/04/15 11:42:33;;;;;;;7.53;5.13;;;;;;;21.15;43.24;99448.78;5085320;28;20036;-67
2022/04/15 11:45:11;;;;;;;14.88;5.50;;;;;;;21.08;43.28;99445.00;5085521;28;20086;-67
2022/04/15 11:47:45;;;;;;;6.30;4.88;;;;;;;21.07;43.26;99446.00;5085593;28;20090;-67
2022/04/15 11:50:17;;;;;;;8.35;5.53;;;;;;;20.99;43.59;99437.78;5085133;28;20047;-68
2022/04/15 11:52:50;;;;;;;7.25;5.60;;;;;;;20.91;43.77;99432.28;5085401;28;20041;-68
2022/04/15 11:55:24;;;;;;;11.90;8.70;;;;;;;20.95;44.11;99439.06;5085057;28;20044;-68
2022/04/15 11:57:56;;;;;;;;;;;;;;;21.08;42.33;99429.69;5085582;28;20346;-68